createdAt,value
2018-03-02T00:00:37.535Z,93760.36
2018-03-02T00:03:06.688Z,93761.16
2018-03-02T00:05:35.849Z,93760.70
2018-03-02T00:08:06.951Z,93762.28
2018-03-02T00:10:39.380Z,93752.31
2018-03-02T00:13:08.548Z,93754.11
2018-03-02T00:15:37.722Z,93746.62
2018-03-02T00:18:06.936Z,93742.33
2018-03-02T00:23:11.335Z,93739.18
2018-03-02T00:25:40.546Z,93731.13
2018-03-02T00:28:09.729Z,93721.17
2018-03-02T00:30:50.686Z,93715.75
2018-03-02T00:33:19.856Z,93710.22
2018-03-02T00:35:49.031Z,93712.59
2018-03-02T00:38:18.173Z,93712.89
2018-03-02T00:40:47.377Z,93711.99
2018-03-02T00:43:16.535Z,93703.18
2018-03-02T00:45:45.678Z,93706.59
2018-03-02T00:48:14.863Z,93700.14
2018-03-02T00:50:44.029Z,93697.80
2018-03-02T00:53:13.196Z,93690.47
2018-03-02T00:55:42.344Z,93684.44
2018-03-02T00:58:11.513Z,93681.69
2018-03-02T01:00:40.730Z,93676.98
2018-03-02T01:03:09.906Z,93682.64
2018-03-02T01:05:39.080Z,93675.27
2018-03-02T01:10:43.510Z,93672.89
2018-03-02T01:13:13.127Z,93662.99
2018-03-02T01:15:42.307Z,93665.08
2018-03-02T01:18:11.501Z,93662.97
2018-03-02T01:20:40.676Z,93659.36
2018-03-02T01:23:11.768Z,93652.39
2018-03-02T01:25:40.991Z,93651.55
2018-03-02T01:28:10.153Z,93649.27
2018-03-02T01:30:39.412Z,93643.26
2018-03-02T01:33:08.605Z,93637.25
2018-03-02T01:35:37.837Z,93637.45
2018-03-02T01:38:07.057Z,93628.85
2018-03-02T01:40:36.216Z,93626.67
2018-03-02T01:43:05.424Z,93624.47
2018-03-02T01:45:34.608Z,93616.59
2018-03-02T01:48:03.829Z,93618.55
2018-03-02T01:50:33.059Z,93609.38
2018-03-02T01:53:02.722Z,93604.97
2018-03-02T01:55:35.338Z,93608.80
2018-03-02T01:58:04.490Z,93600.44
2018-03-02T02:00:33.655Z,93609.02
2018-03-02T02:03:03.088Z,93609.56
2018-03-02T02:05:32.243Z,93607.09
2018-03-02T02:08:02.391Z,93601.79
2018-03-02T02:10:31.603Z,93599.05
2018-03-02T02:13:01.934Z,93590.50
2018-03-02T02:15:31.094Z,93588.63
2018-03-02T02:18:01.439Z,93581.34
2018-03-02T02:20:30.614Z,93578.94
2018-03-02T02:23:01.218Z,93582.50
2018-03-02T02:28:05.615Z,93588.94
2018-03-02T02:30:36.891Z,93587.73
2018-03-02T02:33:06.052Z,93584.70
2018-03-02T02:35:35.190Z,93592.30
2018-03-02T02:38:04.356Z,93596.94
2018-03-02T02:40:33.521Z,93602.98
2018-03-02T02:43:03.179Z,93597.03
2018-03-02T02:45:32.391Z,93595.70
2018-03-02T02:48:02.684Z,93598.22
2018-03-02T02:50:31.856Z,93593.91
2018-03-02T02:53:01.893Z,93589.70
2018-03-02T02:55:32.183Z,93592.05
2018-03-02T02:58:02.729Z,93592.18
2018-03-02T03:00:32.156Z,93594.69
2018-03-02T03:03:02.076Z,93583.33
2018-03-02T03:05:31.237Z,93582.37
2018-03-02T03:08:01.689Z,93588.80
2018-03-02T03:10:30.847Z,93585.06
2018-03-02T03:13:01.167Z,93585.47
2018-03-02T03:15:30.363Z,93583.94
2018-03-02T03:18:00.834Z,93581.02
2018-03-02T03:23:05.189Z,93573.80
2018-03-02T03:25:34.400Z,93566.91
2018-03-02T03:28:03.559Z,93570.09
2018-03-02T03:30:32.735Z,93571.03
2018-03-02T03:35:37.096Z,93565.06
2018-03-02T03:38:06.223Z,93558.94
2018-03-02T03:40:35.399Z,93556.09
2018-03-02T03:43:04.623Z,93553.30
2018-03-02T03:45:33.806Z,93546.41
2018-03-02T03:48:03.000Z,93541.49
2018-03-02T03:50:32.187Z,93531.20
2018-03-02T03:55:36.556Z,93524.97
2018-03-02T03:58:05.696Z,93522.10
2018-03-02T04:00:34.875Z,93528.48
2018-03-02T04:03:04.458Z,93522.23
2018-03-02T04:05:33.615Z,93522.10
2018-03-02T04:08:02.771Z,93522.66
2018-03-02T04:10:31.931Z,93520.59
2018-03-02T04:13:01.095Z,93512.58
2018-03-02T04:15:30.599Z,93504.92
2018-03-02T04:17:59.795Z,93512.75
2018-03-02T04:20:29.003Z,93514.19
2018-03-02T04:22:58.155Z,93510.22
2018-03-02T04:25:30.644Z,93503.48
2018-03-02T04:28:00.252Z,93502.44
2018-03-02T04:30:30.153Z,93501.87
2018-03-02T04:32:59.316Z,93496.27
2018-03-02T04:35:28.647Z,93502.55
2018-03-02T04:37:57.815Z,93495.12
2018-03-02T04:40:26.987Z,93493.57
2018-03-02T04:43:01.506Z,93491.17
2018-03-02T04:45:30.687Z,93486.81
2018-03-02T04:47:59.851Z,93486.35
2018-03-02T04:50:29.034Z,93479.27
2018-03-02T04:52:58.204Z,93479.63
2018-03-02T04:55:27.343Z,93470.03
2018-03-02T04:57:56.519Z,93462.99
2018-03-02T05:03:01.823Z,93464.23
2018-03-02T05:05:30.970Z,93450.70
2018-03-02T05:08:00.145Z,93445.25
2018-03-02T05:10:29.317Z,93436.36
2018-03-02T05:12:59.435Z,93437.98
2018-03-02T05:15:28.578Z,93431.16
2018-03-02T05:17:58.695Z,93429.05
2018-03-02T05:23:03.151Z,93428.05
2018-03-02T05:25:32.323Z,93426.81
2018-03-02T05:28:01.466Z,93431.40
2018-03-02T05:30:30.638Z,93425.80
2018-03-02T05:32:59.775Z,93431.17
2018-03-02T05:38:05.154Z,93426.62
2018-03-02T05:40:34.353Z,93427.16
2018-03-02T05:43:03.598Z,93427.91
2018-03-02T05:45:33.185Z,93434.76
2018-03-02T05:48:02.372Z,93427.80
2018-03-02T05:50:31.556Z,93432.77
2018-03-02T05:53:00.744Z,93428.39
2018-03-02T05:55:29.970Z,93424.55
2018-03-02T05:57:59.128Z,93428.23
2018-03-02T06:00:28.335Z,93426.77
2018-03-02T06:02:57.565Z,93424.83
2018-03-02T06:05:26.723Z,93418.88
2018-03-02T06:07:55.892Z,93412.79
2018-03-02T06:10:25.104Z,93416.31
2018-03-02T06:12:54.263Z,93408.22
2018-03-02T06:15:23.408Z,93404.23
2018-03-02T06:17:52.608Z,93398.45
2018-03-02T06:20:22.240Z,93399.18
2018-03-02T06:22:51.391Z,93399.08
2018-03-02T06:25:20.554Z,93396.62
2018-03-02T06:27:49.711Z,93395.09
2018-03-02T06:30:18.875Z,93399.56
2018-03-02T06:32:48.027Z,93398.45
2018-03-02T06:35:17.200Z,93409.55
2018-03-02T06:40:21.560Z,93404.17
2018-03-02T06:42:50.743Z,93408.55
2018-03-02T06:45:19.874Z,93407.11
2018-03-02T06:47:49.031Z,93403.64
2018-03-02T06:50:18.195Z,93398.59
2018-03-02T06:52:47.372Z,93400.61
2018-03-02T06:55:16.516Z,93397.98
2018-03-02T06:57:45.677Z,93392.55
2018-03-02T07:00:14.907Z,93387.77
2018-03-02T07:02:44.096Z,93385.25
2018-03-02T07:05:13.277Z,93386.05
2018-03-02T07:07:42.443Z,93384.20
2018-03-02T07:10:11.616Z,93384.97
2018-03-02T07:12:40.765Z,93377.13
2018-03-02T07:15:09.937Z,93374.44
2018-03-02T07:17:39.119Z,93376.23
2018-03-02T07:20:08.321Z,93378.04
2018-03-02T07:22:37.493Z,93381.27
2018-03-02T07:25:06.641Z,93381.90
2018-03-02T07:27:35.860Z,93371.80
2018-03-02T07:30:05.034Z,93368.41
2018-03-02T07:32:34.197Z,93363.77
2018-03-02T07:35:03.389Z,93356.78
2018-03-02T07:37:32.574Z,93357.02
2018-03-02T07:40:01.756Z,93351.31
2018-03-02T07:42:46.051Z,93347.05
2018-03-02T07:45:31.487Z,93345.82
2018-03-02T07:48:18.025Z,93334.46
2018-03-02T07:51:12.620Z,93338.27
2018-03-02T07:53:42.447Z,93332.60
2018-03-02T07:56:13.881Z,93326.92
2018-03-02T07:58:47.940Z,93322.88
2018-03-02T08:01:17.464Z,93331.87
2018-03-02T08:03:46.655Z,93322.50
2018-03-02T08:06:18.147Z,93316.17
2018-03-02T08:08:47.326Z,93308.84
2018-03-02T08:11:16.501Z,93309.61
2018-03-02T08:13:53.663Z,93318.21
2018-03-02T08:16:22.820Z,93314.61
2018-03-02T08:18:52.014Z,93312.38
2018-03-02T08:21:21.184Z,93307.83
2018-03-02T08:23:53.135Z,93307.18
2018-03-02T08:26:22.363Z,93301.06
2018-03-02T08:28:51.512Z,93309.19
2018-03-02T08:31:20.688Z,93308.75
2018-03-02T08:33:49.856Z,93307.71
2018-03-02T08:36:19.256Z,93307.00
2018-03-02T08:38:48.408Z,93302.89
2018-03-02T08:41:17.589Z,93304.48
2018-03-02T08:43:46.794Z,93298.58
2018-03-02T08:46:15.944Z,93295.27
2018-03-02T08:48:45.136Z,93293.48
2018-03-02T08:51:23.016Z,93295.20
2018-03-02T08:53:52.189Z,93293.73
2018-03-02T08:56:30.853Z,93292.70
2018-03-02T08:59:00.055Z,93286.48
2018-03-02T09:04:07.644Z,93284.52
2018-03-02T09:06:36.975Z,93280.33
2018-03-02T09:09:06.979Z,93276.91
2018-03-02T09:11:36.197Z,93273.46
2018-03-02T09:14:06.623Z,93274.78
2018-03-02T09:16:35.783Z,93274.69
2018-03-02T09:19:04.980Z,93272.25
2018-03-02T09:21:34.163Z,93269.94
2018-03-02T09:29:34.288Z,93258.91
2018-03-02T09:34:39.339Z,93248.92
2018-03-02T09:39:56.848Z,93253.23
2018-03-02T09:43:16.620Z,93245.12
2018-03-02T09:45:45.770Z,93249.02
2018-03-02T09:54:54.611Z,93236.44
2018-03-02T09:57:23.939Z,93224.22
2018-03-02T09:59:53.112Z,93210.78
2018-03-02T10:04:59.687Z,93222.33
2018-03-02T10:07:28.866Z,93219.92
2018-03-02T10:12:33.233Z,93214.98
2018-03-02T10:15:02.417Z,93217.66
2018-03-02T10:17:31.635Z,93209.20
2018-03-02T10:20:00.810Z,93202.34
2018-03-02T10:22:30.022Z,93202.43
2018-03-02T10:24:59.208Z,93201.11
2018-03-02T10:27:28.362Z,93200.95
2018-03-02T10:29:57.551Z,93193.67
2018-03-02T10:32:26.755Z,93192.09
2018-03-02T10:34:56.850Z,93183.19
2018-03-02T10:37:26.003Z,93187.87
2018-03-02T10:39:55.159Z,93190.84
2018-03-02T10:42:24.336Z,93180.08
2018-03-02T10:44:54.452Z,93182.61
2018-03-02T10:52:34.576Z,93174.19
2018-03-02T10:57:39.064Z,93162.11
2018-03-02T11:00:15.561Z,93161.84
2018-03-02T11:02:50.306Z,93167.42
2018-03-02T11:05:19.530Z,93151.94
2018-03-02T11:07:48.815Z,93160.37
2018-03-02T11:10:18.003Z,93155.48
2018-03-02T11:12:48.143Z,93155.88
2018-03-02T11:15:17.357Z,93145.04
2018-03-02T11:17:46.540Z,93142.78
2018-03-02T11:20:15.671Z,93146.03
2018-03-02T11:22:44.839Z,93146.09
2018-03-02T11:25:13.983Z,93138.91
2018-03-02T11:27:43.168Z,93135.52
2018-03-02T11:30:13.260Z,93128.18
2018-03-02T11:32:42.499Z,93125.65
2018-03-02T11:35:11.761Z,93123.48
2018-03-02T11:37:40.896Z,93127.11
2018-03-02T11:40:10.141Z,93128.31
2018-03-02T11:42:39.311Z,93125.59
2018-03-02T11:45:08.451Z,93126.24
2018-03-02T11:50:12.824Z,93128.84
2018-03-02T11:55:17.286Z,93119.94
2018-03-02T11:57:46.479Z,93120.84
2018-03-02T12:00:15.635Z,93119.80
2018-03-02T12:02:44.810Z,93123.43
2018-03-02T12:05:13.946Z,93113.82
2018-03-02T12:07:43.196Z,93120.41
2018-03-02T12:10:12.440Z,93123.24
2018-03-02T12:12:41.594Z,93121.48
2018-03-02T12:15:10.805Z,93123.02
2018-03-02T12:17:39.959Z,93121.16
2018-03-02T12:20:14.002Z,93131.05
2018-03-02T12:22:43.228Z,93122.84
2018-03-02T12:25:12.415Z,93121.89
2018-03-02T12:27:41.576Z,93113.02
2018-03-02T12:30:11.291Z,93117.70
2018-03-02T12:32:40.459Z,93117.58
2018-03-02T12:35:09.599Z,93119.41
2018-03-02T12:37:38.836Z,93121.17
2018-03-02T12:40:08.025Z,93127.91
2018-03-02T12:42:37.211Z,93131.39
2018-03-02T12:45:06.413Z,93132.86
2018-03-02T12:47:36.575Z,93135.22
2018-03-02T12:50:05.735Z,93130.41
2018-03-02T12:55:12.199Z,93140.16
2018-03-02T12:57:41.335Z,93139.22
2018-03-02T13:00:10.679Z,93138.22
2018-03-02T13:02:39.851Z,93141.48
2018-03-02T13:07:45.050Z,93151.38
2018-03-02T13:10:14.185Z,93150.88
2018-03-02T13:12:43.347Z,93152.05
2018-03-02T13:15:12.529Z,93157.86
2018-03-02T13:17:41.764Z,93161.40
2018-03-02T13:20:10.957Z,93179.47
2018-03-02T13:22:42.113Z,93191.28
2018-03-02T13:25:11.282Z,93208.53
2018-03-02T13:30:15.733Z,93250.84
2018-03-02T13:35:58.133Z,93292.34
2018-03-02T13:41:20.166Z,93332.75
2018-03-02T13:43:49.375Z,93352.21
2018-03-02T13:46:22.093Z,93362.28
2018-03-02T13:49:09.781Z,93369.45
2018-03-02T13:51:38.971Z,93373.97
2018-03-02T13:54:08.274Z,93381.45
2018-03-02T13:59:13.747Z,93400.48
2018-03-02T14:01:44.983Z,93409.71
2018-03-02T14:07:09.629Z,93428.97
2018-03-02T14:12:22.406Z,93441.22
2018-03-02T14:14:51.687Z,93445.20
2018-03-02T14:19:58.027Z,93456.00
2018-03-02T14:22:38.656Z,93423.69
2018-03-02T14:25:15.858Z,93429.17
2018-03-02T14:27:50.412Z,93438.11
2018-03-02T14:30:36.483Z,93429.89
2018-03-02T14:33:11.085Z,93428.97
2018-03-02T14:38:42.406Z,93423.81
2018-03-02T14:41:21.380Z,93421.95
2018-03-02T14:43:57.635Z,93427.75
2018-03-02T14:46:37.164Z,93433.63
2018-03-02T14:49:11.840Z,93431.33
2018-03-02T14:51:46.837Z,93441.59
2018-03-02T14:56:57.095Z,93450.03
2018-03-02T14:59:35.531Z,93449.84
2018-03-02T15:02:10.122Z,93449.83
2018-03-02T15:04:44.630Z,93455.57
2018-03-02T15:07:24.945Z,93454.41
2018-03-02T15:09:58.357Z,93455.60
2018-03-02T15:12:33.470Z,93465.34
2018-03-02T15:15:08.062Z,93465.05
2018-03-02T15:17:45.926Z,93463.67
2018-03-02T15:22:58.322Z,93478.88
2018-03-02T15:25:32.466Z,93482.77
2018-03-02T15:28:06.885Z,93480.39
2018-03-02T15:30:53.958Z,93483.80
2018-03-02T15:33:38.570Z,93490.04
2018-03-02T15:38:51.852Z,93490.53
2018-03-02T15:44:04.498Z,93507.49
2018-03-02T15:49:22.137Z,93505.28
2018-03-02T15:51:56.626Z,93514.55
2018-03-02T15:57:07.683Z,93509.73
2018-03-02T15:59:52.610Z,93516.42
2018-03-02T16:02:26.957Z,93517.16
2018-03-02T16:05:01.617Z,93518.23
2018-03-02T16:07:37.771Z,93523.53
2018-03-02T16:10:14.906Z,93534.17
2018-03-02T16:12:51.531Z,93538.28
2018-03-02T16:15:28.597Z,93540.00
2018-03-02T16:18:05.611Z,93544.22
2018-03-02T16:20:45.041Z,93542.99
2018-03-02T16:23:28.792Z,93544.97
2018-03-02T16:26:02.834Z,93550.19
2018-03-02T16:28:40.338Z,93556.20
2018-03-02T16:31:31.655Z,93563.05
2018-03-02T16:34:06.126Z,93569.44
2018-03-02T16:36:44.544Z,93575.52
2018-03-02T16:39:22.650Z,93579.56
2018-03-02T16:41:56.387Z,93589.17
2018-03-02T16:44:32.010Z,93593.63
2018-03-02T16:47:07.066Z,93594.31
2018-03-02T16:52:52.491Z,93603.78
2018-03-02T16:58:04.128Z,93619.36
2018-03-02T17:00:49.122Z,93619.67
2018-03-02T17:03:25.121Z,93615.75
2018-03-02T17:05:58.392Z,93620.15
2018-03-02T17:08:40.624Z,93624.97
2018-03-02T17:11:11.796Z,93633.25
2018-03-02T17:13:42.007Z,93632.67
2018-03-02T17:16:15.532Z,93635.55
2018-03-02T17:18:44.703Z,93646.19
2018-03-02T17:21:13.883Z,93647.52
2018-03-02T17:23:48.006Z,93654.25
2018-03-02T17:26:18.683Z,93653.57
2018-03-02T17:28:47.858Z,93653.72
2018-03-02T17:33:52.323Z,93660.70
2018-03-02T17:36:21.702Z,93664.86
2018-03-02T17:38:51.876Z,93672.52
2018-03-02T17:41:22.195Z,93672.20
2018-03-02T17:43:51.999Z,93674.79
2018-03-02T17:46:21.295Z,93676.31
2018-03-02T17:48:52.450Z,93678.33
2018-03-02T17:51:21.635Z,93683.92
2018-03-02T17:53:52.865Z,93692.41
2018-03-02T17:56:22.043Z,93692.98
2018-03-02T17:58:56.709Z,93695.94
2018-03-02T18:01:25.876Z,93701.19
2018-03-02T18:03:56.022Z,93700.27
2018-03-02T18:06:25.183Z,93705.33
2018-03-02T18:08:54.359Z,93711.20
2018-03-02T18:11:23.541Z,93711.53
2018-03-02T18:16:28.025Z,93709.77
2018-03-02T18:21:58.217Z,93707.88
2018-03-02T18:24:27.452Z,93712.36
2018-03-02T18:26:56.663Z,93712.49
2018-03-02T18:29:25.847Z,93711.20
2018-03-02T18:31:55.918Z,93712.00
2018-03-02T18:34:25.133Z,93717.20
2018-03-02T18:36:54.322Z,93714.50
2018-03-02T18:39:23.494Z,93722.98
2018-03-02T18:41:52.737Z,93725.34
2018-03-02T18:44:21.943Z,93727.34
2018-03-02T18:49:29.908Z,93730.42
2018-03-02T18:51:59.074Z,93729.48
2018-03-02T18:54:28.337Z,93726.91
2018-03-02T18:57:10.357Z,93724.15
2018-03-02T18:59:47.436Z,93719.64
2018-03-02T19:02:16.718Z,93721.75
2018-03-02T19:07:30.912Z,93724.74
2018-03-02T19:10:05.237Z,93724.91
2018-03-02T19:15:18.980Z,93724.31
2018-03-02T19:18:00.119Z,93724.95
2018-03-02T19:20:29.314Z,93724.05
2018-03-02T19:23:13.884Z,93727.23
2018-03-02T19:28:20.558Z,93725.80
2018-03-02T19:30:49.753Z,93727.83
2018-03-02T19:33:20.271Z,93730.27
2018-03-02T19:35:49.460Z,93733.08
2018-03-02T19:38:19.800Z,93729.98
2018-03-02T19:40:48.943Z,93723.45
2018-03-02T19:43:19.511Z,93728.71
2018-03-02T19:45:58.222Z,93723.73
2018-03-02T19:48:27.426Z,93725.06
2018-03-02T19:53:44.757Z,93726.12
2018-03-02T19:56:13.936Z,93727.09
2018-03-02T20:01:21.283Z,93725.70
2018-03-02T20:03:50.504Z,93721.83
2018-03-02T20:06:20.978Z,93721.49
2018-03-02T20:11:41.903Z,93722.79
2018-03-02T20:14:11.253Z,93723.42
2018-03-02T20:16:40.829Z,93721.23
2018-03-02T20:19:35.199Z,93729.09
2018-03-02T20:24:42.132Z,93724.58
2018-03-02T20:29:54.828Z,93721.92
2018-03-02T20:32:27.578Z,93724.26
2018-03-02T20:37:33.746Z,93720.22
2018-03-02T20:40:06.916Z,93719.07
2018-03-02T20:42:36.315Z,93718.86
2018-03-02T20:45:05.520Z,93718.63
2018-03-02T20:47:35.659Z,93723.85
2018-03-02T20:50:21.258Z,93726.61
2018-03-02T20:52:51.096Z,93725.92
2018-03-02T20:55:21.229Z,93721.20
2018-03-02T20:57:50.757Z,93722.52
2018-03-02T21:00:28.987Z,93712.70
2018-03-02T21:02:58.517Z,93715.52
2018-03-02T21:08:09.624Z,93720.96
2018-03-02T21:10:39.000Z,93717.55
2018-03-02T21:13:17.011Z,93718.14
2018-03-02T21:18:34.336Z,93725.11
2018-03-02T21:24:01.974Z,93729.03
2018-03-02T21:26:41.083Z,93734.58
2018-03-02T21:29:21.285Z,93731.77
2018-03-02T21:34:43.469Z,93728.42
2018-03-02T21:39:58.306Z,93733.42
2018-03-02T21:42:36.769Z,93730.94
2018-03-02T21:45:24.853Z,93735.91
2018-03-02T21:48:03.438Z,93734.14
2018-03-02T21:53:22.057Z,93733.03
2018-03-02T21:56:27.565Z,93737.73
2018-03-02T21:59:11.823Z,93732.92
2018-03-02T22:04:35.943Z,93729.88
2018-03-02T22:12:26.936Z,93727.16
2018-03-02T22:17:40.320Z,93722.23
2018-03-02T22:20:21.610Z,93723.91
2018-03-02T22:22:55.372Z,93730.08
2018-03-02T22:25:30.222Z,93734.39
2018-03-02T22:28:06.993Z,93730.55
2018-03-02T22:30:40.792Z,93729.91
2018-03-02T22:33:18.486Z,93729.09
2018-03-02T22:36:04.515Z,93730.23
2018-03-02T22:38:39.811Z,93727.13
2018-03-02T22:41:25.461Z,93721.69
2018-03-02T22:43:59.671Z,93725.44
2018-03-02T22:46:35.258Z,93719.42
2018-03-02T22:52:21.160Z,93715.05
2018-03-02T22:54:59.303Z,93715.53
2018-03-02T22:57:32.791Z,93711.90
2018-03-02T23:00:23.496Z,93714.56
2018-03-02T23:02:57.711Z,93721.11
2018-03-02T23:05:31.725Z,93712.66
2018-03-02T23:08:05.808Z,93710.30
2018-03-02T23:10:39.106Z,93715.45
2018-03-02T23:13:16.734Z,93718.48
2018-03-02T23:16:01.171Z,93706.03
2018-03-02T23:18:35.286Z,93707.02
2018-03-02T23:21:12.976Z,93704.73
2018-03-02T23:24:01.575Z,93706.69
2018-03-02T23:26:35.971Z,93712.81
2018-03-02T23:29:06.134Z,93706.62
2018-03-02T23:31:43.051Z,93703.71
2018-03-02T23:34:12.219Z,93721.19
2018-03-02T23:36:42.050Z,93705.83
2018-03-02T23:39:11.197Z,93715.30
2018-03-02T23:41:51.784Z,93722.11
2018-03-02T23:44:22.394Z,93714.86
2018-03-02T23:46:51.586Z,93717.83
2018-03-02T23:49:20.755Z,93715.25
2018-03-02T23:51:57.149Z,93719.11
2018-03-02T23:54:26.315Z,93725.53
2018-03-02T23:56:55.548Z,93727.95
